Time;durP1;ratioP1;P1;durP2;ratioP2;P2;SDS_P1;SDS_P2;PMS_P1;PMS_P2;Temp;Humidity;BMP_temperature;BMP_pressure;BME280_temperature;BME280_humidity;BME280_pressure;Samples;Min_cycle;Max_cycle;Signal;HPM_P1;HPM_P2
2021/06/06 00:00:59;;;;;;;20.98;17.02;;;16.90;80.80;;;;;;5011297;28;20040;-74
2021/06/06 00:03:36;;;;;;;22.30;17.55;;;16.90;80.50;;;;;;5009814;28;20033;-73
2021/06/06 00:06:11;;;;;;;21.90;17.55;;;16.90;80.60;;;;;;5010393;28;20021;-73
2021/06/06 00:08:37;;;;;;;23.40;18.17;;;16.80;80.60;;;;;;5002545;28;20018;-72
2021/06/06 00:11:20;;;;;;;21.42;17.33;;;16.80;80.60;;;;;;5000496;28;20033;-72
2021/06/06 00:13:47;;;;;;;;;;;16.80;80.60;;;;;;5006535;28;20455;-72
2021/06/06 00:16:17;;;;;;;21.88;17.73;;;16.80;80.60;;;;;;4995728;28;20408;-72
2021/06/06 00:18:43;;;;;;;20.85;17.45;;;16.80;80.60;;;;;;4992960;28;20035;-73
2021/06/06 00:21:12;;;;;;;21.00;16.98;;;16.80;80.50;;;;;;5001759;28;20503;-74
2021/06/06 00:23:38;;;;;;;22.75;17.65;;;16.80;80.60;;;;;;4996141;28;20494;-77
2021/06/06 00:26:06;;;;;;;23.98;18.58;;;16.70;80.40;;;;;;5005305;28;20109;-72
2021/06/06 00:28:31;;;;;;;21.27;17.17;;;16.70;80.40;;;;;;5010540;28;20479;-73
2021/06/06 00:30:59;;;;;;;20.00;15.85;;;16.60;80.50;;;;;;5009654;28;20084;-79
2021/06/06 00:33:24;;;;;;;22.55;17.88;;;16.60;80.50;;;;;;5010906;28;20034;-72
2021/06/06 00:35:50;;;;;;;22.25;16.30;;;16.60;80.40;;;;;;5012116;28;20033;-72
2021/06/06 00:38:16;;;;;;;19.30;16.00;;;16.60;80.50;;;;;;5009988;28;20030;-73
2021/06/06 00:40:42;;;;;;;19.60;16.55;;;16.50;80.60;;;;;;5011038;28;20459;-74
2021/06/06 00:43:09;;;;;;;19.45;16.35;;;16.60;80.50;;;;;;5007937;28;20121;-71
2021/06/06 00:45:36;;;;;;;19.48;15.38;;;16.60;80.60;;;;;;5010294;28;20379;-72
2021/06/06 00:48:03;;;;;;;19.35;17.25;;;16.60;80.50;;;;;;5010771;28;20395;-73
2021/06/06 00:50:35;;;;;;;21.25;17.40;;;16.60;80.40;;;;;;5008695;28;20029;-72
2021/06/06 00:53:27;;;;;;;21.42;17.02;;;16.50;80.60;;;;;;5010839;28;20025;-78
2021/06/06 00:55:54;;;;;;;22.20;17.40;;;16.50;80.60;;;;;;5002814;28;20130;-73
2021/06/06 00:58:19;;;;;;;20.35;15.77;;;16.50;80.60;;;;;;5010500;28;20057;-73
2021/06/06 01:00:51;;;;;;;21.15;16.73;;;16.50;80.60;;;;;;5012780;28;20443;-73
2021/06/06 01:03:18;;;;;;;18.92;15.60;;;16.50;80.70;;;;;;5011600;28;20037;-72
2021/06/06 01:06:06;;;;;;;19.48;15.85;;;16.50;80.80;;;;;;5011868;28;20435;-72
2021/06/06 01:08:33;;;;;;;20.95;16.20;;;16.50;80.90;;;;;;5012668;28;20060;-72
2021/06/06 01:11:34;;;;;;;21.35;16.65;;;16.50;80.90;;;;;;5011464;28;20518;-75
2021/06/06 01:14:35;;;;;;;23.48;17.55;;;16.50;80.90;;;;;;5012067;28;20034;-79
2021/06/06 01:17:16;;;;;;;22.65;16.63;;;16.40;80.90;;;;;;5005813;28;20156;-77
2021/06/06 01:20:07;;;;;;;23.02;18.08;;;16.30;81.10;;;;;;5010960;28;20509;-73
2021/06/06 01:22:49;;;;;;;22.25;16.38;;;16.30;81.40;;;;;;5015293;28;20030;-71
2021/06/06 01:25:23;;;;;;;20.85;16.67;;;16.40;81.60;;;;;;5014766;28;20029;-73
2021/06/06 01:28:15;;;;;;;21.85;17.08;;;16.30;81.50;;;;;;5015697;28;20030;-74
2021/06/06 01:30:46;;;;;;;20.73;15.98;;;16.40;81.60;;;;;;5002446;28;20077;-73
2021/06/06 01:33:54;;;;;;;21.73;16.60;;;16.40;81.80;;;;;;4996058;28;20030;-73
2021/06/06 01:36:25;;;;;;;25.13;18.15;;;16.40;81.90;;;;;;4993929;28;20049;-73
2021/06/06 01:38:57;;;;;;;20.65;16.70;;;16.30;81.90;;;;;;5015073;28;20450;-72
2021/06/06 01:41:34;;;;;;;17.83;15.50;;;16.30;82.10;;;;;;5013920;28;20034;-72
2021/06/06 01:44:03;;;;;;;21.80;17.42;;;16.30;82.20;;;;;;5014673;28;20034;-74
2021/06/06 01:46:37;;;;;;;21.98;17.90;;;16.30;82.10;;;;;;5013803;28;20033;-73
2021/06/06 01:49:05;;;;;;;20.80;15.38;;;16.30;82.20;;;;;;5013302;28;20037;-73
2021/06/06 01:51:36;;;;;;;18.83;15.60;;;16.40;82.30;;;;;;5013648;28;20564;-72
2021/06/06 01:54:06;;;;;;;21.15;15.88;;;16.30;82.20;;;;;;5013349;28;20108;-73
2021/06/06 01:56:36;;;;;;;19.70;16.55;;;16.30;82.20;;;;;;5014067;28;20030;-72
2021/06/06 01:59:08;;;;;;;19.17;15.68;;;16.30;82.20;;;;;;5015780;28;20370;-73
2021/06/06 02:01:34;;;;;;;23.35;16.60;;;16.30;82.40;;;;;;5015784;28;20022;-73
2021/06/06 02:04:01;;;;;;;22.67;17.17;;;16.30;82.30;;;;;;5014465;28;20103;-73
2021/06/06 02:06:38;;;;;;;21.45;16.50;;;16.30;82.30;;;;;;5013431;28;20352;-73
2021/06/06 02:09:09;;;;;;;19.15;16.25;;;16.40;82.40;;;;;;5012966;28;20031;-73
2021/06/06 02:11:38;;;;;;;20.45;16.50;;;16.30;82.40;;;;;;5014239;28;20022;-73
2021/06/06 02:14:10;;;;;;;21.25;17.30;;;16.40;82.50;;;;;;5013959;28;20061;-72
2021/06/06 02:16:40;;;;;;;27.23;20.02;;;16.40;82.50;;;;;;5012938;28;20572;-73
2021/06/06 02:19:07;;;;;;;27.58;21.92;;;16.30;82.40;;;;;;5013900;28;20033;-72
2021/06/06 02:21:33;;;;;;;28.48;21.20;;;16.20;82.60;;;;;;5013556;28;20120;-73
2021/06/06 02:23:59;;;;;;;28.85;22.23;;;16.20;82.90;;;;;;5012938;28;20125;-72
2021/06/06 02:26:45;;;;;;;29.98;23.65;;;16.20;83.00;;;;;;5013203;28;20108;-72
2021/06/06 02:29:22;;;;;;;28.10;22.27;;;16.20;83.00;;;;;;5012059;28;20034;-79
2021/06/06 02:31:59;;;;;;;28.88;23.05;;;16.20;83.10;;;;;;5012715;28;20040;-73
2021/06/06 02:34:32;;;;;;;29.00;23.67;;;16.20;83.00;;;;;;5013453;28;20092;-73
2021/06/06 02:37:06;;;;;;;32.47;26.17;;;16.10;83.00;;;;;;5013554;28;20037;-73
2021/06/06 02:39:36;;;;;;;28.15;23.30;;;16.10;83.10;;;;;;5012535;28;20029;-72
2021/06/06 02:42:14;;;;;;;31.35;24.92;;;16.00;83.20;;;;;;5013340;28;20076;-72
2021/06/06 02:44:48;;;;;;;34.90;23.88;;;16.10;83.40;;;;;;5013445;28;20160;-73
2021/06/06 02:47:17;;;;;;;35.63;26.83;;;16.10;83.50;;;;;;5012151;28;20099;-79
2021/06/06 02:49:45;;;;;;;31.23;24.73;;;16.20;83.30;;;;;;5012233;28;20081;-73
2021/06/06 02:52:16;;;;;;;32.35;24.30;;;16.20;83.20;;;;;;5013543;28;20026;-73
2021/06/06 02:54:51;;;;;;;30.17;24.05;;;16.20;83.20;;;;;;5012614;28;20037;-72
2021/06/06 02:57:19;;;;;;;32.17;24.08;;;16.20;83.10;;;;;;5011989;28;20466;-73
2021/06/06 02:59:46;;;;;;;30.70;24.60;;;16.30;83.10;;;;;;4992641;28;20030;-71
2021/06/06 03:02:17;;;;;;;34.15;24.77;;;16.30;83.00;;;;;;5004468;28;20076;-71
2021/06/06 03:04:48;;;;;;;30.10;23.98;;;16.30;82.90;;;;;;5013529;28;20033;-72
2021/06/06 03:07:23;;;;;;;34.40;25.88;;;16.30;82.90;;;;;;5013480;28;20026;-76
2021/06/06 03:09:50;;;;;;;33.45;25.75;;;16.30;82.80;;;;;;5012036;28;20026;-71
2021/06/06 03:12:18;;;;;;;33.22;25.00;;;16.30;82.80;;;;;;5013030;28;20030;-76
2021/06/06 03:14:47;;;;;;;34.45;26.90;;;16.30;82.80;;;;;;5013502;28;20030;-73
2021/06/06 03:17:26;;;;;;;33.72;26.50;;;16.30;82.80;;;;;;5013250;28;20105;-73
2021/06/06 03:19:56;;;;;;;35.63;25.70;;;16.30;82.80;;;;;;5012941;28;20038;-71
2021/06/06 03:22:27;;;;;;;35.05;26.83;;;16.30;83.00;;;;;;5012610;28;20018;-73
2021/06/06 03:25:00;;;;;;;32.90;26.08;;;16.30;82.80;;;;;;5013010;28;20040;-73
2021/06/06 03:27:32;;;;;;;32.00;24.98;;;16.30;82.70;;;;;;5012517;28;20022;-72
2021/06/06 03:30:29;;;;;;;32.80;25.55;;;16.40;82.80;;;;;;5012910;28;20177;-73
2021/06/06 03:32:58;;;;;;;32.40;24.80;;;16.40;82.80;;;;;;4997330;28;20061;-72
2021/06/06 03:35:23;;;;;;;36.67;26.92;;;16.40;82.80;;;;;;5010630;28;20030;-73
2021/06/06 03:37:49;;;;;;;34.65;27.40;;;16.40;82.80;;;;;;5002035;28;20480;-72
2021/06/06 03:40:16;;;;;;;31.33;25.55;;;16.30;82.80;;;;;;4980759;28;20068;-73
2021/06/06 03:42:42;;;;;;;34.65;26.50;;;16.40;82.80;;;;;;4992027;28;20036;-72
2021/06/06 03:45:10;;;;;;;32.28;25.35;;;16.40;82.80;;;;;;4996822;28;20482;-72
2021/06/06 03:47:36;;;;;;;32.50;26.33;;;16.40;82.80;;;;;;5026501;28;20057;-72
2021/06/06 03:50:04;;;;;;;35.72;26.42;;;16.40;82.70;;;;;;5030123;28;20056;-73
2021/06/06 03:52:33;;;;;;;37.92;27.90;;;16.50;82.70;;;;;;4996494;28;20034;-73
2021/06/06 03:55:00;;;;;;;39.60;28.15;;;16.40;82.60;;;;;;5010932;28;20087;-73
2021/06/06 03:57:26;;;;;;;42.00;29.75;;;16.40;82.70;;;;;;5010891;28;20022;-74
2021/06/06 03:59:51;;;;;;;35.88;27.38;;;16.30;82.80;;;;;;5012257;28;20118;-73
2021/06/06 04:02:17;;;;;;;32.20;25.42;;;16.30;82.90;;;;;;5012210;28;20133;-73
2021/06/06 04:04:43;;;;;;;36.92;26.98;;;16.30;83.00;;;;;;5010935;28;20049;-73
2021/06/06 04:07:10;;;;;;;37.55;27.77;;;16.30;83.00;;;;;;5011974;28;20034;-72
2021/06/06 04:09:35;;;;;;;32.35;25.80;;;16.20;83.10;;;;;;5011366;28;20034;-73
2021/06/06 04:12:01;;;;;;;36.67;25.92;;;16.30;83.30;;;;;;5011252;28;20449;-72
2021/06/06 04:14:27;;;;;;;34.67;25.83;;;16.30;83.20;;;;;;5011630;28;20064;-73
2021/06/06 04:16:52;;;;;;;32.95;24.75;;;16.20;83.20;;;;;;5010581;28;20121;-74
2021/06/06 04:19:18;;;;;;;34.65;24.75;;;16.20;83.20;;;;;;4994076;28;20045;-73
2021/06/06 04:21:44;;;;;;;35.00;26.58;;;16.30;83.30;;;;;;5011471;28;20022;-73
2021/06/06 04:24:10;;;;;;;32.97;26.40;;;16.30;83.30;;;;;;5010866;28;20120;-72
2021/06/06 04:26:35;;;;;;;36.45;27.42;;;16.40;83.20;;;;;;5011353;28;20113;-73
2021/06/06 04:29:02;;;;;;;37.25;28.38;;;16.40;83.20;;;;;;5011613;28;20068;-73
2021/06/06 04:31:27;;;;;;;41.30;29.05;;;16.40;83.10;;;;;;5012599;28;20054;-77
2021/06/06 04:33:53;;;;;;;33.70;26.70;;;16.30;83.20;;;;;;4995641;28;20040;-74
2021/06/06 04:36:19;;;;;;;34.72;26.52;;;16.30;83.20;;;;;;5012269;28;20087;-74
2021/06/06 04:38:46;;;;;;;36.85;28.15;;;16.20;83.20;;;;;;5009715;28;20616;-74
2021/06/06 04:41:13;;;;;;;38.50;28.83;;;16.20;83.30;;;;;;5011774;28;20101;-74
2021/06/06 04:43:39;;;;;;;38.08;28.25;;;16.20;83.40;;;;;;5009844;28;20041;-73
2021/06/06 04:46:06;;;;;;;39.45;27.73;;;16.20;83.50;;;;;;5011875;28;20030;-73
2021/06/06 04:48:36;;;;;;;38.17;28.55;;;16.20;83.50;;;;;;5009944;28;20041;-74
2021/06/06 04:51:04;;;;;;;36.60;27.45;;;16.10;83.50;;;;;;5010604;28;20500;-73
2021/06/06 04:53:31;;;;;;;31.55;24.70;;;16.00;83.60;;;;;;5011535;28;20161;-75
2021/06/06 04:55:58;;;;;;;33.22;26.65;;;16.00;83.60;;;;;;5014712;28;20096;-73
2021/06/06 04:58:25;;;;;;;31.13;24.10;;;16.00;83.50;;;;;;5015613;28;20462;-74
2021/06/06 05:00:51;;;;;;;28.58;23.35;;;16.00;83.40;;;;;;5014659;28;20057;-73
2021/06/06 05:03:19;;;;;;;27.60;21.98;;;16.00;83.30;;;;;;5015344;28;20042;-73
2021/06/06 05:05:45;;;;;;;25.95;21.02;;;16.00;83.20;;;;;;5014775;28;20073;-73
2021/06/06 05:08:17;;;;;;;24.55;21.02;;;16.00;83.10;;;;;;5014298;28;20060;-72
2021/06/06 05:10:44;;;;;;;27.33;22.15;;;16.10;82.80;;;;;;5015002;28;20443;-73
2021/06/06 05:13:12;;;;;;;24.95;21.77;;;16.00;82.80;;;;;;5014065;28;20117;-73
2021/06/06 05:15:37;;;;;;;25.75;20.05;;;16.00;82.70;;;;;;4997168;28;20383;-72
2021/06/06 05:18:04;;;;;;;24.70;20.17;;;16.00;82.70;;;;;;5012969;28;20034;-72
2021/06/06 05:20:33;;;;;;;28.33;22.38;;;16.00;82.60;;;;;;5014815;28;20030;-76
2021/06/06 05:23:00;;;;;;;25.65;20.98;;;16.10;82.50;;;;;;5014082;28;20036;-73
2021/06/06 05:25:26;;;;;;;24.10;21.35;;;16.00;82.40;;;;;;5015432;28;20481;-73
2021/06/06 05:27:52;;;;;;;23.23;19.10;;;16.00;82.50;;;;;;5012541;28;20034;-72
2021/06/06 05:30:23;;;;;;;26.23;21.50;;;16.00;82.50;;;;;;4997474;28;20054;-72
2021/06/06 05:32:50;;;;;;;23.67;20.02;;;16.00;82.40;;;;;;5014531;28;20141;-72
2021/06/06 05:35:17;;;;;;;27.25;20.83;;;16.10;82.40;;;;;;5014761;28;20082;-72
2021/06/06 05:37:42;;;;;;;28.17;22.30;;;16.10;82.30;;;;;;5014135;28;20089;-73
2021/06/06 05:40:09;;;;;;;26.10;20.98;;;16.10;82.30;;;;;;5014163;28;20143;-72
2021/06/06 05:42:34;;;;;;;27.65;21.73;;;16.00;82.30;;;;;;5012748;28;20040;-78
2021/06/06 05:45:00;;;;;;;31.08;23.13;;;16.00;82.30;;;;;;5014757;28;20038;-72
2021/06/06 05:47:25;;;;;;;31.65;23.63;;;16.10;82.30;;;;;;5014445;28;20065;-73
2021/06/06 05:49:51;;;;;;;25.95;21.92;;;16.10;82.30;;;;;;4997435;28;20030;-73
2021/06/06 05:52:17;;;;;;;28.90;23.02;;;16.10;82.40;;;;;;5015049;28;20033;-72
2021/06/06 05:54:42;;;;;;;32.17;24.60;;;16.20;82.20;;;;;;5012751;28;20038;-72
2021/06/06 05:57:08;;;;;;;30.58;24.92;;;16.20;82.10;;;;;;5014557;28;20568;-72
2021/06/06 05:59:34;;;;;;;30.00;24.52;;;16.20;82.00;;;;;;5013478;28;20026;-76
2021/06/06 06:02:00;;;;;;;29.95;22.98;;;16.10;82.00;;;;;;5014807;28;20134;-72
2021/06/06 06:04:26;;;;;;;27.30;21.95;;;16.20;82.10;;;;;;5015575;28;20060;-72
2021/06/06 06:06:52;;;;;;;28.52;22.80;;;16.20;82.10;;;;;;5013446;28;20467;-72
2021/06/06 06:09:17;;;;;;;28.05;22.45;;;16.30;81.90;;;;;;5014911;28;20537;-72
2021/06/06 06:11:43;;;;;;;28.50;22.00;;;16.30;81.70;;;;;;5013329;28;20034;-73
2021/06/06 06:14:09;;;;;;;29.65;24.10;;;16.30;81.60;;;;;;5013065;28;20068;-72
2021/06/06 06:16:37;;;;;;;29.08;21.40;;;16.30;81.40;;;;;;5014065;28;20096;-76
2021/06/06 06:19:08;;;;;;;26.70;22.05;;;16.30;81.40;;;;;;5013223;28;20026;-72
2021/06/06 06:21:35;;;;;;;23.92;20.55;;;16.40;81.30;;;;;;5014501;28;20486;-75
2021/06/06 06:24:02;;;;;;;27.55;20.85;;;16.40;81.00;;;;;;5013111;28;20029;-73
2021/06/06 06:26:28;;;;;;;28.95;21.75;;;16.40;80.90;;;;;;5014226;28;20084;-72
2021/06/06 06:28:54;;;;;;;26.73;20.33;;;16.40;80.80;;;;;;5014415;28;20506;-72
2021/06/06 06:31:20;;;;;;;26.80;21.58;;;16.40;80.80;;;;;;5015585;28;20053;-73
2021/06/06 06:33:46;;;;;;;27.80;20.75;;;16.50;80.70;;;;;;5013295;28;20033;-73
2021/06/06 06:36:14;;;;;;;31.70;24.30;;;16.50;80.40;;;;;;5015576;28;20049;-73
2021/06/06 06:38:40;;;;;;;26.42;20.80;;;16.40;80.30;;;;;;5015063;28;20048;-78
2021/06/06 06:41:06;;;;;;;32.17;22.35;;;16.40;80.60;;;;;;5015667;28;20101;-74
2021/06/06 06:43:32;;;;;;;31.75;23.55;;;16.40;80.60;;;;;;5014243;28;20120;-72
2021/06/06 06:45:58;;;;;;;28.90;22.60;;;16.50;80.60;;;;;;5019024;28;20017;-73
2021/06/06 06:48:26;;;;;;;35.63;26.17;;;16.50;80.50;;;;;;5020791;28;20040;-73
2021/06/06 06:50:53;;;;;;;30.13;23.63;;;16.50;80.50;;;;;;5013126;28;20544;-74
2021/06/06 06:53:21;;;;;;;30.65;23.23;;;16.50;80.90;;;;;;5013670;28;20030;-74
2021/06/06 06:55:47;;;;;;;29.58;22.20;;;16.50;80.50;;;;;;5013325;28;20029;-74
2021/06/06 06:58:15;;;;;;;31.50;23.30;;;16.50;80.50;;;;;;5008479;28;20052;-73
2021/06/06 07:00:43;;;;;;;29.85;21.80;;;16.60;80.50;;;;;;5010128;28;20034;-78
2021/06/06 07:03:14;;;;;;;30.35;22.02;;;16.60;80.50;;;;;;5009347;28;20042;-72
2021/06/06 07:05:40;;;;;;;29.80;22.48;;;16.60;80.40;;;;;;4998027;28;20046;-78
2021/06/06 07:08:13;;;;;;;27.63;21.83;;;16.70;80.30;;;;;;4994198;28;20033;-73
2021/06/06 07:10:41;;;;;;;31.38;23.85;;;16.80;80.10;;;;;;4993978;28;20022;-72
2021/06/06 07:13:08;;;;;;;28.63;22.70;;;16.80;79.90;;;;;;4993807;28;20105;-73
2021/06/06 07:15:35;;;;;;;32.60;24.08;;;16.70;80.00;;;;;;4999609;28;20133;-73
2021/06/06 07:18:01;;;;;;;31.05;24.10;;;16.80;80.10;;;;;;5011597;28;20040;-74
2021/06/06 07:20:32;;;;;;;27.77;22.08;;;16.80;79.80;;;;;;5012888;28;20466;-74
2021/06/06 07:22:58;;;;;;;30.60;22.10;;;16.70;80.00;;;;;;5011091;28;20029;-72
2021/06/06 07:25:24;;;;;;;29.35;21.63;;;16.70;80.00;;;;;;5012744;28;20034;-73
2021/06/06 07:27:53;;;;;;;30.73;24.15;;;16.80;79.90;;;;;;5012052;28;20133;-73
2021/06/06 07:30:23;;;;;;;33.25;24.13;;;16.80;80.00;;;;;;5012940;28;20050;-73
2021/06/06 07:32:50;;;;;;;31.55;23.85;;;16.80;79.90;;;;;;5011670;28;20064;-73
2021/06/06 07:35:20;;;;;;;32.42;23.73;;;16.80;79.90;;;;;;5012490;28;20037;-72
2021/06/06 07:37:46;;;;;;;31.05;23.27;;;16.80;79.90;;;;;;5008224;28;20044;-78
2021/06/06 07:40:19;;;;;;;28.73;22.23;;;16.90;80.00;;;;;;5116252;27;20467;-72
2021/06/06 07:42:44;;;;;;;30.17;23.25;;;17.00;79.80;;;;;;5087813;28;20029;-77
2021/06/06 07:45:13;;;;;;;27.75;22.27;;;17.00;79.60;;;;;;5095676;28;20476;-72
2021/06/06 07:47:41;;;;;;;30.33;22.98;;;17.00;79.70;;;;;;5098788;28;20414;-72
2021/06/06 07:50:11;;;;;;;31.23;23.83;;;17.10;79.50;;;;;;5074907;28;20024;-74
2021/06/06 07:52:37;;;;;;;31.90;23.15;;;17.10;79.40;;;;;;5079765;28;20033;-72
2021/06/06 07:55:08;;;;;;;32.17;25.80;;;17.20;79.30;;;;;;5087558;28;20034;-72
2021/06/06 07:57:34;;;;;;;35.03;27.58;;;17.20;79.30;;;;;;5089989;28;20081;-73
2021/06/06 07:59:59;;;;;;;39.13;29.98;;;17.20;79.30;;;;;;5081812;28;20036;-73
2021/06/06 08:02:25;;;;;;;44.25;32.67;;;17.30;79.20;;;;;;5073127;28;20033;-74
2021/06/06 08:04:51;;;;;;;43.15;32.60;;;17.50;79.10;;;;;;5083407;28;20108;-74
2021/06/06 08:07:17;;;;;;;39.90;31.60;;;17.60;78.90;;;;;;5069907;28;20032;-73
2021/06/06 08:09:43;;;;;;;40.15;29.40;;;17.70;78.60;;;;;;5081906;28;20046;-75
2021/06/06 08:12:09;;;;;;;35.63;28.35;;;17.80;78.50;;;;;;5081814;28;20029;-75
2021/06/06 08:14:35;;;;;;;33.90;25.80;;;17.90;78.20;;;;;;5069540;28;20043;-73
2021/06/06 08:17:01;;;;;;;34.13;25.00;;;17.90;78.00;;;;;;5085037;28;20032;-73
2021/06/06 08:19:26;;;;;;;32.25;24.27;;;18.00;77.80;;;;;;5069084;28;20465;-75
2021/06/06 08:21:53;;;;;;;33.30;23.17;;;18.00;77.50;;;;;;5093481;28;20044;-74
2021/06/06 08:24:18;;;;;;;29.25;22.80;;;18.00;77.60;;;;;;5071203;28;20024;-72
2021/06/06 08:26:44;;;;;;;27.08;21.67;;;18.10;77.60;;;;;;5087594;28;20028;-73
2021/06/06 08:29:12;;;;;;;27.42;21.00;;;18.20;77.40;;;;;;5088306;28;20082;-72
2021/06/06 08:31:39;;;;;;;32.88;21.45;;;18.30;77.10;;;;;;5088313;28;20074;-72
2021/06/06 08:34:08;;;;;;;30.15;22.00;;;18.30;76.80;;;;;;5087428;28;20020;-72
2021/06/06 08:36:45;;;;;;;27.98;20.92;;;18.30;77.20;;;;;;5088464;28;20017;-72
2021/06/06 08:39:22;;;;;;;29.23;21.38;;;18.30;76.70;;;;;;5087551;28;20139;-72
2021/06/06 08:42:18;;;;;;;25.65;21.17;;;18.30;76.80;;;;;;5093311;28;20426;-72
2021/06/06 08:45:07;;;;;;;29.08;21.02;;;18.30;76.90;;;;;;5097313;28;20024;-73
2021/06/06 08:47:34;;;;;;;28.63;19.85;;;18.40;76.80;;;;;;5078447;28;20060;-73
2021/06/06 08:50:07;;;;;;;29.33;21.15;;;18.40;76.50;;;;;;5083104;28;20025;-75
2021/06/06 08:53:04;;;;;;;24.27;19.48;;;18.50;76.20;;;;;;5070844;28;20052;-74
2021/06/06 08:56:04;;;;;;;26.70;19.70;;;18.50;76.00;;;;;;5093524;28;20031;-72
2021/06/06 08:58:43;;;;;;;26.73;20.65;;;18.60;75.90;;;;;;5061075;28;20029;-72
2021/06/06 09:01:29;;;;;;;26.08;21.10;;;18.70;75.70;;;;;;5054028;28;20025;-72
2021/06/06 09:03:58;;;;;;;25.45;20.33;;;18.70;75.60;;;;;;5053773;28;20055;-75
2021/06/06 09:07:05;;;;;;;28.05;20.58;;;18.70;75.60;;;;;;5054719;28;20036;-72
2021/06/06 09:09:35;;;;;;;25.02;20.50;;;18.80;75.30;;;;;;5053418;28;20045;-72
2021/06/06 09:12:06;;;;;;;26.55;19.33;;;19.00;75.00;;;;;;5053429;28;20029;-72
2021/06/06 09:14:32;;;;;;;24.30;19.27;;;19.10;74.70;;;;;;5054443;28;20029;-72
2021/06/06 09:17:02;;;;;;;23.98;19.10;;;19.20;74.30;;;;;;5054219;28;20029;-74
2021/06/06 09:19:41;;;;;;;24.00;19.45;;;19.20;74.20;;;;;;5062288;28;20033;-72
2021/06/06 09:22:07;;;;;;;25.27;20.98;;;19.20;74.00;;;;;;5052141;28;20028;-73
2021/06/06 09:24:43;;;;;;;28.52;20.13;;;19.20;74.00;;;;;;5069726;28;20405;-72
2021/06/06 09:27:20;;;;;;;27.38;21.73;;;19.30;73.80;;;;;;5052885;28;20025;-72
2021/06/06 09:30:13;;;;;;;24.25;20.23;;;19.30;73.90;;;;;;5053991;28;20033;-71
2021/06/06 09:32:39;;;;;;;25.02;20.20;;;19.30;73.60;;;;;;5075998;28;20033;-72
2021/06/06 09:35:27;;;;;;;26.77;20.35;;;19.30;73.80;;;;;;5073316;28;20154;-72
2021/06/06 09:38:22;;;;;;;24.33;19.38;;;19.20;73.80;;;;;;5072467;28;20047;-73
2021/06/06 09:40:50;;;;;;;25.88;20.25;;;19.30;73.80;;;;;;5072572;28;20040;-72
2021/06/06 09:43:29;;;;;;;24.77;20.30;;;19.30;73.50;;;;;;5072804;28;20043;-73
2021/06/06 09:46:14;;;;;;;24.60;18.92;;;19.40;73.40;;;;;;5073498;28;20029;-72
2021/06/06 09:48:43;;;;;;;23.33;19.52;;;19.50;73.30;;;;;;5073500;28;20488;-73
2021/06/06 09:51:24;;;;;;;26.63;19.08;;;19.60;72.90;;;;;;5082109;28;20028;-71
2021/06/06 09:53:50;;;;;;;23.98;18.38;;;19.60;73.00;;;;;;5082678;28;20028;-72
2021/06/06 09:56:21;;;;;;;21.90;18.25;;;19.60;72.90;;;;;;5058787;28;20052;-72
2021/06/06 09:58:49;;;;;;;22.98;18.13;;;19.70;72.90;;;;;;5069005;28;20479;-72
2021/06/06 10:01:21;;;;;;;21.63;18.33;;;19.70;72.70;;;;;;5058305;28;20036;-72
2021/06/06 10:04:16;;;;;;;25.80;19.95;;;19.80;72.60;;;;;;5076943;28;20044;-72
2021/06/06 10:06:43;;;;;;;25.77;19.85;;;19.80;72.50;;;;;;5071454;28;20025;-72
2021/06/06 10:09:19;;;;;;;23.23;18.92;;;19.80;72.50;;;;;;5072295;28;20089;-72
2021/06/06 10:11:53;;;;;;;21.33;18.08;;;19.80;72.50;;;;;;5060430;28;20071;-72
2021/06/06 10:14:24;;;;;;;21.45;17.42;;;19.90;72.20;;;;;;5072579;28;20021;-73
2021/06/06 10:16:53;;;;;;;22.05;17.73;;;20.00;72.20;;;;;;5073361;28;20050;-72
2021/06/06 10:19:40;;;;;;;23.38;18.15;;;20.00;72.10;;;;;;5057320;28;20678;-72
2021/06/06 10:22:13;;;;;;;19.35;16.60;;;19.90;72.10;;;;;;5057412;28;20021;-73
2021/06/06 10:24:58;;;;;;;20.00;16.25;;;20.00;72.20;;;;;;5070243;28;20035;-73
2021/06/06 10:27:38;;;;;;;20.45;17.38;;;20.10;72.10;;;;;;5067255;28;20815;-72
2021/06/06 10:30:17;;;;;;;23.23;17.50;;;20.10;71.70;;;;;;5071890;28;20469;-78
2021/06/06 10:32:45;;;;;;;20.75;16.73;;;20.10;71.50;;;;;;5071651;28;20077;-72
2021/06/06 10:35:29;;;;;;;19.40;16.15;;;20.20;71.50;;;;;;5083117;28;21405;-73
2021/06/06 10:37:58;;;;;;;19.60;16.30;;;20.20;71.50;;;;;;5052692;28;20044;-73
2021/06/06 10:40:42;;;;;;;17.98;15.75;;;20.30;71.30;;;;;;5056519;28;20048;-73
2021/06/06 10:43:29;;;;;;;20.67;16.50;;;20.40;71.30;;;;;;5071716;28;20037;-72
2021/06/06 10:46:04;;;;;;;20.92;17.98;;;20.40;71.10;;;;;;5067920;28;20013;-73
2021/06/06 10:48:42;;;;;;;21.10;18.75;;;20.40;71.30;;;;;;5061506;28;20024;-73
2021/06/06 10:51:14;;;;;;;22.20;19.80;;;20.30;71.10;;;;;;5051233;28;20057;-72
2021/06/06 10:53:53;;;;;;;24.35;20.02;;;20.30;71.10;;;;;;5052358;28;20031;-72
2021/06/06 10:56:50;;;;;;;26.83;20.90;;;20.40;71.10;;;;;;5062232;28;20020;-71
2021/06/06 10:59:55;;;;;;;23.98;19.90;;;20.30;70.90;;;;;;5067870;28;20051;-73
2021/06/06 11:02:39;;;;;;;21.80;19.40;;;20.40;71.00;;;;;;5066400;28;20052;-73
2021/06/06 11:05:24;;;;;;;23.15;20.17;;;20.60;70.70;;;;;;5080490;28;20025;-77
2021/06/06 11:07:50;;;;;;;24.02;21.33;;;20.80;70.40;;;;;;5067453;28;20075;-73
2021/06/06 11:10:16;;;;;;;23.55;21.05;;;20.90;69.70;;;;;;5068173;28;20064;-73
2021/06/06 11:12:45;;;;;;;21.70;19.40;;;20.90;69.80;;;;;;5067385;28;20069;-73
2021/06/06 11:15:33;;;;;;;26.20;23.13;;;20.90;69.60;;;;;;5050134;28;20122;-73
2021/06/06 11:18:09;;;;;;;26.45;23.63;;;20.90;69.70;;;;;;5067515;28;20021;-73
2021/06/06 11:20:47;;;;;;;23.67;21.17;;;21.10;69.60;;;;;;5052130;28;20477;-72
2021/06/06 11:23:18;;;;;;;24.40;21.65;;;21.10;69.20;;;;;;5081659;28;20039;-72
2021/06/06 11:25:48;;;;;;;23.08;20.58;;;21.00;69.30;;;;;;5069182;28;20128;-72
2021/06/06 11:28:35;;;;;;;22.17;19.17;;;21.10;69.60;;;;;;5053547;28;20036;-73
2021/06/06 11:31:03;;;;;;;20.10;17.80;;;21.00;68.70;;;;;;5066230;28;20503;-72
2021/06/06 11:33:46;;;;;;;18.45;16.55;;;20.80;69.10;;;;;;5070085;28;20020;-73
2021/06/06 11:36:13;;;;;;;20.35;18.23;;;20.80;69.60;;;;;;5068201;28;20028;-73
2021/06/06 11:38:45;;;;;;;19.85;17.73;;;20.80;69.70;;;;;;5069968;28;20111;-73
2021/06/06 11:41:23;;;;;;;20.42;18.42;;;20.70;69.90;;;;;;5066150;28;20065;-76
2021/06/06 11:43:54;;;;;;;19.90;17.90;;;20.70;69.80;;;;;;5070958;28;20039;-72
2021/06/06 11:46:29;;;;;;;22.00;19.00;;;20.50;70.20;;;;;;5068575;28;20032;-72
2021/06/06 11:49:17;;;;;;;21.65;18.95;;;20.70;70.80;;;;;;5067652;28;20079;-73
2021/06/06 11:51:47;;;;;;;20.67;18.02;;;21.00;69.80;;;;;;5062241;28;20119;-73
2021/06/06 11:54:34;;;;;;;19.33;17.30;;;21.30;69.30;;;;;;5069054;28;20483;-73
2021/06/06 11:57:17;;;;;;;17.20;15.45;;;21.60;68.70;;;;;;5067967;28;20074;-73
2021/06/06 11:59:52;;;;;;;19.10;17.13;;;22.00;68.40;;;;;;5070458;28;20460;-72
2021/06/06 12:02:25;;;;;;;18.52;16.52;;;22.30;67.50;;;;;;5067240;28;20485;-72
2021/06/06 12:04:51;;;;;;;18.58;16.67;;;22.50;67.10;;;;;;5070663;28;20028;-72
2021/06/06 12:07:29;;;;;;;17.67;15.80;;;22.70;66.40;;;;;;5083435;28;20029;-73
2021/06/06 12:09:57;;;;;;;19.00;17.13;;;22.80;66.20;;;;;;5071462;28;20040;-74
2021/06/06 12:12:25;;;;;;;20.02;17.85;;;22.90;65.10;;;;;;5068447;28;20025;-72
2021/06/06 12:15:23;;;;;;;16.40;14.70;;;22.60;64.90;;;;;;5066992;28;20031;-71
2021/06/06 12:18:04;;;;;;;17.60;15.75;;;22.50;66.10;;;;;;5071006;28;20021;-72
2021/06/06 12:20:30;;;;;;;18.67;16.73;;;22.60;66.00;;;;;;5066256;28;20590;-72
2021/06/06 12:23:09;;;;;;;19.67;17.77;;;22.60;64.70;;;;;;5066819;28;20192;-73
2021/06/06 12:25:36;;;;;;;20.45;18.45;;;22.50;64.60;;;;;;5071573;28;20020;-72
2021/06/06 12:28:15;;;;;;;19.50;17.60;;;22.20;65.00;;;;;;5070921;28;20472;-72
2021/06/06 12:30:47;;;;;;;19.92;17.92;;;21.90;66.10;;;;;;5073035;28;20380;-72
2021/06/06 12:33:24;;;;;;;20.63;18.60;;;21.80;67.00;;;;;;5074090;28;20032;-76
2021/06/06 12:35:53;;;;;;;19.35;17.35;;;21.90;67.60;;;;;;5073132;28;20017;-71
2021/06/06 12:38:22;;;;;;;20.08;18.08;;;22.10;67.30;;;;;;5071562;28;20033;-72
2021/06/06 12:40:49;;;;;;;19.63;17.63;;;22.00;66.80;;;;;;5073427;28;20039;-73
2021/06/06 12:43:18;;;;;;;18.20;16.20;;;22.00;67.30;;;;;;5068607;28;20020;-75
2021/06/06 12:45:47;;;;;;;18.13;16.33;;;21.80;67.10;;;;;;5070450;28;20019;-71
2021/06/06 12:48:24;;;;;;;19.95;17.05;;;21.80;67.60;;;;;;5069555;28;20024;-75
2021/06/06 12:50:51;;;;;;;18.23;16.35;;;21.80;67.80;;;;;;5069902;28;20460;-71